Puerto Banus, Marbella

>

This is an optional block (switch it off / on) in the settings - file ($SITE['banners'] = false;)

You can display ads, any other important text or photo’s using text / html or PHP code.

You can place one or more at the top and or bottom and it can all be different for content / size .



Meteosat more information blitzortung!


Radar lluvias  rain snow radar


Visita nuestra red de sitios de meteo:

Documentation for the template used

MeteoibericaRed estaciones Meteorologicas

MeteoclimaticRed estaciones Meteorologicas



Sin Advertencias climatologicas .En este momento tenemos Nivel Verde.    No hay Alarmas

Pagina Historial Weather Underground texto

Diario Resumen Noviembre 4, 2017 Unidades:  Métrico    impérial   Tanto
« Anterior Dia
Siguiente Dia »
Diario Semana Mensual Anual Personalizada
  Maxima: Minima: Media:
Temperatura: 22.6 °C 16.1 °C 18.2 °C
Punto de rocío: 17.2 °C 12.1 °C 15 °C
Humedad: 95 % 55 % 83 %
Velocidad del Viento: 29.6 km/h 0.0 km/h 8.5 km/h
Ráfagas de viento: 29.6 km/h - -
Viento:- - West
Pression baro: 1019.2 hPa 1011.4 hPa -
Précipitaciones: 13.5 mm    
Historical Graphs
 
 
Datos de tabla para Noviembre 4, 2017
Tiempo Temperatura Punto de rocío Pression baro Viento Velocidad del Viento Ráfagas de viento Humedad Las precipitaciones Rate ( Hora )
00:02 16.7 °C 15.8 °C 1013.8 hPa North 5.6 km/h 5.6 km/h 94 % 0.0 mm
00:07 16.7 °C 15.7 °C 1013.8 hPa North 5.6 km/h 5.6 km/h 94 % 0.0 mm
00:12 16.7 °C 15.7 °C 1013.4 hPa North 5.6 km/h 5.6 km/h 94 % 0.0 mm
00:17 16.7 °C 15.7 °C 1013.4 hPa North 5.6 km/h 5.6 km/h 94 % 0.0 mm
00:22 16.7 °C 15.7 °C 1013.4 hPa North 6.4 km/h 6.4 km/h 94 % 0.0 mm
00:27 16.6 °C 15.7 °C 1013.4 hPa North 5.6 km/h 5.6 km/h 94 % 0.0 mm
00:32 16.6 °C 15.7 °C 1013.4 hPa North 5.6 km/h 5.6 km/h 94 % 0.0 mm
00:37 16.7 °C 15.7 °C 1013.4 hPa North 5.6 km/h 5.6 km/h 94 % 0.0 mm
00:42 16.7 °C 15.8 °C 1013.4 hPa North 5.6 km/h 5.6 km/h 94 % 0.0 mm
00:47 16.8 °C 15.8 °C 1013.4 hPa North 5.6 km/h 5.6 km/h 94 % 0.0 mm
00:52 16.8 °C 15.8 °C 1013.4 hPa North 5.6 km/h 5.6 km/h 94 % 0.0 mm
00:57 16.8 °C 15.9 °C 1013.4 hPa North 5.6 km/h 5.6 km/h 94 % 0.0 mm
01:02 16.8 °C 15.9 °C 1013.4 hPa Calm     94 % 0.0 mm
01:07 16.9 °C 15.9 °C 1013.1 hPa North 6.4 km/h 6.4 km/h 94 % 0.0 mm
01:12 16.9 °C 15.9 °C 1013.4 hPa North 7.4 km/h 7.4 km/h 94 % 0.0 mm
01:17 16.9 °C 15.9 °C 1013.1 hPa North 5.6 km/h 5.6 km/h 94 % 0.0 mm
01:22 16.9 °C 15.9 °C 1013.1 hPa North 5.6 km/h 5.6 km/h 94 % 0.0 mm
01:27 16.9 °C 15.9 °C 1013.1 hPa North 6.4 km/h 6.4 km/h 94 % 0.0 mm
01:32 16.9 °C 15.9 °C 1013.1 hPa North 5.6 km/h 5.6 km/h 94 % 0.0 mm
01:35 16.9 °C 15.9 °C 1013.1 hPa North 3.7 km/h 3.7 km/h 94 % 0.0 mm
01:39 16.9 °C 15.9 °C 1013.1 hPa North 5.6 km/h 5.6 km/h 94 % 0.0 mm
01:44 17.0 °C 16.0 °C 1013.1 hPa North 5.6 km/h 5.6 km/h 94 % 0.0 mm
01:49 17.0 °C 16.0 °C 1013.1 hPa North 5.6 km/h 5.6 km/h 94 % 0.0 mm
01:54 17.1 °C 16.1 °C 1013.1 hPa North 5.6 km/h 5.6 km/h 94 % 0.0 mm
01:59 17.1 °C 16.1 °C 1013.1 hPa North 1.9 km/h 1.9 km/h 94 % 0.0 mm
02:04 17.2 °C 16.2 °C 1012.8 hPa North 1.9 km/h 1.9 km/h 94 % 0.0 mm
02:09 17.2 °C 16.2 °C 1012.8 hPa Calm     94 % 0.0 mm
02:14 17.2 °C 16.2 °C 1012.8 hPa North 3.7 km/h 3.7 km/h 94 % 0.0 mm
02:19 17.2 °C 16.2 °C 1012.8 hPa North 6.4 km/h 6.4 km/h 94 % 0.0 mm
02:24 17.1 °C 16.1 °C 1012.8 hPa North 5.6 km/h 5.6 km/h 94 % 0.0 mm
02:29 17.0 °C 16.0 °C 1012.8 hPa North 5.6 km/h 5.6 km/h 94 % 0.0 mm
02:34 16.9 °C 15.9 °C 1012.4 hPa North 5.6 km/h 5.6 km/h 94 % 0.0 mm
02:39 16.9 °C 15.9 °C 1012.4 hPa North 6.4 km/h 6.4 km/h 94 % 0.0 mm
02:44 16.8 °C 15.8 °C 1012.4 hPa North 5.6 km/h 5.6 km/h 94 % 0.0 mm
02:49 16.8 °C 15.8 °C 1012.4 hPa North 7.4 km/h 7.4 km/h 94 % 0.0 mm
02:54 16.7 °C 15.8 °C 1012.4 hPa North 5.6 km/h 5.6 km/h 94 % 0.0 mm
02:59 16.7 °C 15.8 °C 1012.1 hPa North 5.6 km/h 5.6 km/h 94 % 0.0 mm
03:04 16.7 °C 15.9 °C 1012.1 hPa North 3.7 km/h 3.7 km/h 95 % 0.0 mm
03:09 16.8 °C 16.0 °C 1012.4 hPa Calm     95 % 0.0 mm
03:14 16.9 °C 16.1 °C 1012.4 hPa Calm     95 % 0.0 mm
03:19 16.9 °C 16.1 °C 1012.1 hPa Calm     95 % 0.3 mm
03:24 16.9 °C 15.9 °C 1012.1 hPa Calm     94 % 0.3 mm
03:29 16.9 °C 15.9 °C 1011.7 hPa Calm     94 % 0.5 mm
03:34 16.9 °C 15.9 °C 1011.7 hPa North 3.7 km/h 3.7 km/h 94 % 0.5 mm
03:39 16.9 °C 16.1 °C 1011.7 hPa North 5.6 km/h 5.6 km/h 95 % 0.5 mm
03:44 16.8 °C 16.0 °C 1011.7 hPa North 5.6 km/h 5.6 km/h 95 % 0.5 mm
03:49 16.7 °C 15.9 °C 1011.7 hPa North 3.2 km/h 3.2 km/h 95 % 0.5 mm
03:54 16.7 °C 15.7 °C 1011.7 hPa North 5.6 km/h 5.6 km/h 94 % 0.5 mm
03:59 16.7 °C 15.7 °C 1011.7 hPa North 3.7 km/h 3.7 km/h 94 % 0.5 mm
04:04 16.6 °C 15.7 °C 1011.7 hPa North 3.7 km/h 3.7 km/h 94 % 1.0 mm
04:09 16.6 °C 15.7 °C 1011.4 hPa Calm     94 % 1.0 mm
04:16 16.6 °C 15.8 °C 1011.7 hPa WNW 5.6 km/h 5.6 km/h 95 % 1.0 mm
04:20 16.7 °C 15.9 °C 1011.7 hPa WNW 3.7 km/h   95 % 0.8 mm
04:23 16.7 °C 15.9 °C 1011.7 hPa Calm     95 % 0.8 mm
04:26 16.7 °C 15.9 °C 1011.7 hPa WNW 3.2 km/h 3.2 km/h 95 % 0.8 mm
04:27 16.7 °C 15.9 °C 1011.7 hPa WNW 3.7 km/h 3.7 km/h 95 % 0.8 mm
04:29 16.7 °C 15.9 °C 1011.7 hPa WNW 3.7 km/h 3.7 km/h 95 % 0.5 mm
04:32 16.7 °C 15.9 °C 1011.7 hPa Calm     95 % 0.5 mm
04:37 16.7 °C 15.9 °C 1011.4 hPa NW 5.6 km/h 5.6 km/h 95 % 0.5 mm
04:42 16.7 °C 15.9 °C 1011.7 hPa NW 3.7 km/h 3.7 km/h 95 % 0.8 mm
04:47 16.7 °C 15.9 °C 1011.7 hPa NW 5.6 km/h 5.6 km/h 95 % 1.0 mm
04:52 16.7 °C 15.9 °C 1012.1 hPa NW 6.4 km/h 6.4 km/h 95 % 2.0 mm
04:57 16.7 °C 15.9 °C 1011.7 hPa NW 1.9 km/h   95 % 2.3 mm
05:02 16.6 °C 15.8 °C 1011.7 hPa NW 5.6 km/h 5.6 km/h 95 % 2.0 mm
05:07 16.6 °C 15.8 °C 1011.7 hPa NW 3.7 km/h 3.7 km/h 95 % 1.8 mm
05:12 16.6 °C 15.8 °C 1011.7 hPa NW 1.9 km/h 1.9 km/h 95 % 1.8 mm
05:17 16.6 °C 15.8 °C 1011.7 hPa NW 3.7 km/h 3.7 km/h 95 % 1.8 mm
05:22 16.6 °C 15.8 °C 1011.7 hPa NW 3.7 km/h 3.7 km/h 95 % 1.8 mm
05:27 16.6 °C 15.8 °C 1011.7 hPa NW 3.2 km/h 3.2 km/h 95 % 1.8 mm
05:32 16.6 °C 15.8 °C 1011.7 hPa WSW 7.4 km/h 7.4 km/h 95 % 1.8 mm
05:37 16.7 °C 15.9 °C 1012.1 hPa WSW 25.9 km/h 25.9 km/h 95 % 2.8 mm
05:42 16.8 °C 16.0 °C 1012.1 hPa West 14.8 km/h 14.8 km/h 95 % 3.3 mm
05:47 16.8 °C 16.0 °C 1012.1 hPa WSW 16.7 km/h 16.7 km/h 95 % 3.0 mm
05:52 16.8 °C 16.0 °C 1012.1 hPa WNW 5.6 km/h 5.6 km/h 95 % 2.0 mm
05:57 16.9 °C 16.1 °C 1012.1 hPa WNW 7.4 km/h 7.4 km/h 95 % 1.8 mm
06:02 19.3 °C 16.2 °C 1019.2 hPa ENE 16.1 km/h 22.5 km/h 82 % 0.0 mm
06:07 16.9 °C 16.1 °C 1011.7 hPa WNW 1.9 km/h 1.9 km/h 95 % 1.8 mm
06:12 16.9 °C 16.1 °C 1012.1 hPa WNW 5.6 km/h 5.6 km/h 95 % 2.0 mm
06:17 16.8 °C 16.0 °C 1012.1 hPa WNW 3.7 km/h 3.7 km/h 95 % 2.0 mm
06:22 16.8 °C 16.0 °C 1011.7 hPa NW 4.8 km/h 4.8 km/h 95 % 2.0 mm
06:27 16.7 °C 15.9 °C 1012.1 hPa NW 1.9 km/h   95 % 2.0 mm
06:32 16.7 °C 15.9 °C 1011.7 hPa NW 5.6 km/h 5.6 km/h 95 % 2.0 mm
06:37 16.7 °C 15.9 °C 1012.1 hPa NW 5.6 km/h 5.6 km/h 95 % 1.0 mm
06:42 16.7 °C 15.9 °C 1012.1 hPa Calm     95 % 0.3 mm
06:47 16.7 °C 15.9 °C 1012.1 hPa NW 3.7 km/h 3.7 km/h 95 % 0.3 mm
06:52 16.7 °C 15.9 °C 1012.1 hPa NW 1.9 km/h 1.9 km/h 95 % 0.5 mm
06:57 16.7 °C 15.9 °C 1012.1 hPa Calm     95 % 0.5 mm
07:02 16.7 °C 15.9 °C 1012.1 hPa Calm     95 % 0.5 mm
07:07 16.6 °C 15.7 °C 1012.1 hPa Calm     94 % 0.5 mm
07:12 16.6 °C 15.8 °C 1012.1 hPa Calm     95 % 0.3 mm
07:17 16.6 °C 15.8 °C 1012.1 hPa NW 1.6 km/h 1.6 km/h 95 % 0.3 mm
07:22 16.6 °C 15.8 °C 1012.4 hPa NW 5.6 km/h 5.6 km/h 95 % 0.3 mm
07:27 16.6 °C 15.6 °C 1012.1 hPa NW 5.6 km/h 5.6 km/h 94 % 0.3 mm
07:32 16.5 °C 15.6 °C 1012.1 hPa NW 3.7 km/h 3.7 km/h 94 % 0.3 mm
07:33 16.5 °C 15.6 °C 1012.1 hPa NW 3.7 km/h 3.7 km/h 94 % 0.3 mm
07:38 16.5 °C 15.7 °C 1012.4 hPa NNW 5.6 km/h 5.6 km/h 95 % 0.3 mm
07:43 16.6 °C 15.8 °C 1012.4 hPa NNE 7.4 km/h 7.4 km/h 95 % 0.5 mm
07:48 16.6 °C 15.7 °C 1012.4 hPa NNE 1.9 km/h 1.9 km/h 94 % 0.5 mm
07:53 16.6 °C 15.6 °C 1012.4 hPa NNE 5.6 km/h 5.6 km/h 94 % 0.3 mm
07:59 16.6 °C 15.8 °C 1012.4 hPa North 6.4 km/h 6.4 km/h 95 % 0.5 mm
08:03 16.5 °C 15.6 °C 1012.8 hPa North 9.3 km/h 9.3 km/h 94 % 0.8 mm
08:08 16.4 °C 15.4 °C 1012.8 hPa North 5.6 km/h 5.6 km/h 94 % 0.8 mm
08:14 16.3 °C 15.4 °C 1012.8 hPa North 3.7 km/h 3.7 km/h 94 % 2.8 mm
08:18 16.3 °C 15.3 °C 1013.1 hPa North 3.7 km/h 3.7 km/h 94 % 3.0 mm
08:24 16.2 °C 15.3 °C 1013.1 hPa North 3.7 km/h 3.7 km/h 94 % 3.3 mm
08:29 16.1 °C 15.2 °C 1013.1 hPa North 3.7 km/h 3.7 km/h 94 % 3.6 mm
08:34 16.1 °C 15.1 °C 1013.1 hPa Calm     94 % 3.8 mm
08:39 16.1 °C 15.1 °C 1013.1 hPa North 3.7 km/h 3.7 km/h 94 % 4.1 mm
08:44 16.1 °C 15.3 °C 1013.1 hPa North 1.9 km/h 1.9 km/h 95 % 3.8 mm
08:49 16.1 °C 15.3 °C 1013.1 hPa North 3.2 km/h 3.2 km/h 95 % 3.8 mm
08:54 16.2 °C 15.4 °C 1013.1 hPa North 5.6 km/h 5.6 km/h 95 % 3.8 mm
08:59 16.2 °C 15.4 °C 1013.1 hPa North 3.7 km/h 3.7 km/h 95 % 3.6 mm
09:04 16.3 °C 15.3 °C 1013.1 hPa North 5.6 km/h 5.6 km/h 94 % 3.3 mm
09:09 16.3 °C 15.6 °C 1013.4 hPa North 5.6 km/h 5.6 km/h 95 % 3.3 mm
09:14 16.5 °C 15.7 °C 1013.4 hPa North 5.6 km/h 5.6 km/h 95 % 1.3 mm
09:19 16.6 °C 15.8 °C 1013.4 hPa North 5.6 km/h 5.6 km/h 95 % 1.0 mm
09:24 16.7 °C 15.9 °C 1013.4 hPa North 1.9 km/h 1.9 km/h 95 % 0.8 mm
09:29 16.9 °C 16.1 °C 1013.4 hPa Calm     95 % 0.3 mm
09:34 17.1 °C 16.2 °C 1013.8 hPa Calm     95 % 0.3 mm
09:39 17.1 °C 16.1 °C 1013.8 hPa North 5.6 km/h 5.6 km/h 94 % 0.0 mm
09:44 17.1 °C 16.2 °C 1013.8 hPa North 1.9 km/h 1.9 km/h 95 % 0.3 mm
09:49 17.1 °C 16.1 °C 1013.8 hPa North 3.7 km/h 3.7 km/h 94 % 0.5 mm
09:54 17.1 °C 16.1 °C 1013.8 hPa SW 8.0 km/h 8.0 km/h 94 % 1.0 mm
09:59 17.1 °C 16.1 °C 1013.8 hPa SSW 9.3 km/h 9.3 km/h 94 % 1.3 mm
10:04 17.1 °C 16.1 °C 1014.1 hPa SW 6.4 km/h 6.4 km/h 94 % 1.3 mm
10:09 17.1 °C 16.1 °C 1014.1 hPa SW 8.0 km/h 8.0 km/h 94 % 1.5 mm
10:14 17.1 °C 16.1 °C 1014.1 hPa SW 3.7 km/h 3.7 km/h 94 % 2.3 mm
10:19 17.0 °C 16.0 °C 1014.1 hPa SW 1.9 km/h 1.9 km/h 94 % 2.5 mm
10:24 17.0 °C 16.0 °C 1014.4 hPa Calm     94 % 3.0 mm
10:29 16.9 °C 15.9 °C 1014.1 hPa Calm     94 % 3.8 mm
10:34 16.9 °C 15.9 °C 1014.1 hPa SW 3.2 km/h 3.2 km/h 94 % 4.1 mm
10:39 16.9 °C 15.9 °C 1014.1 hPa Calm     94 % 4.1 mm
10:44 16.9 °C 15.9 °C 1014.1 hPa Calm     94 % 3.8 mm
10:49 16.9 °C 15.9 °C 1014.1 hPa SW 5.6 km/h 5.6 km/h 94 % 3.8 mm
10:54 17.0 °C 16.0 °C 1014.1 hPa SW 5.6 km/h 5.6 km/h 94 % 3.3 mm
10:59 16.9 °C 15.9 °C 1014.1 hPa SW 5.6 km/h 5.6 km/h 94 % 3.0 mm
11:04 17.1 °C 16.1 °C 1014.1 hPa SW 3.7 km/h 3.7 km/h 94 % 3.0 mm
11:09 17.1 °C 16.1 °C 1014.1 hPa SW 1.6 km/h   94 % 2.8 mm
11:14 17.2 °C 16.2 °C 1014.1 hPa SW 5.6 km/h 5.6 km/h 94 % 2.0 mm
11:19 17.2 °C 16.2 °C 1014.1 hPa SSW 8.0 km/h 8.0 km/h 94 % 1.8 mm
11:24 17.4 °C 16.4 °C 1014.1 hPa SSW 5.6 km/h 5.6 km/h 94 % 1.3 mm
11:29 17.3 °C 16.2 °C 1014.1 hPa SSW 5.6 km/h 6.0 km/h 93 % 0.5 mm
11:34 17.3 °C 16.2 °C 1014.4 hPa SSW 6.4 km/h 6.4 km/h 93 % 0.3 mm
11:39 17.5 °C 16.5 °C 1014.4 hPa SSW 6.4 km/h 6.4 km/h 94 % 0.3 mm
11:44 17.7 °C 16.5 °C 1014.4 hPa WSW 7.4 km/h 7.4 km/h 93 % 0.3 mm
11:49 17.6 °C 16.4 °C 1014.4 hPa SW 5.6 km/h 5.6 km/h 93 % 0.0 mm
11:54 17.6 °C 16.3 °C 1014.4 hPa WSW 6.4 km/h 6.4 km/h 92 % 0.0 mm
11:59 17.6 °C 16.3 °C 1014.4 hPa SW 11.3 km/h 11.3 km/h 92 % 0.0 mm
12:04 17.6 °C 16.2 °C 1014.1 hPa West 11.1 km/h 11.1 km/h 92 % 0.0 mm
12:09 17.6 °C 16.2 °C 1014.1 hPa West 11.1 km/h 11.1 km/h 92 % 0.0 mm
12:14 17.8 °C 16.4 °C 1014.1 hPa WSW 7.4 km/h 7.4 km/h 92 % 0.0 mm
12:15 17.8 °C 16.4 °C 1014.1 hPa WSW 7.4 km/h 7.4 km/h 92 % 0.0 mm
12:20 17.9 °C 16.6 °C 1014.1 hPa WSW 11.3 km/h 11.3 km/h 92 % 0.0 mm
12:25 18.2 °C 16.7 °C 1014.1 hPa SW 11.1 km/h 11.1 km/h 91 % 0.0 mm
12:30 18.3 °C 16.8 °C 1014.1 hPa SW 18.5 km/h 18.5 km/h 91 % 0.0 mm
12:35 18.3 °C 16.8 °C 1013.8 hPa SW 18.5 km/h 18.5 km/h 91 % 0.0 mm
12:40 18.4 °C 16.9 °C 1013.8 hPa WSW 18.5 km/h 18.5 km/h 91 % 0.0 mm
12:45 18.6 °C 16.9 °C 1013.8 hPa WSW 18.5 km/h 18.5 km/h 90 % 0.0 mm
12:50 18.6 °C 16.9 °C 1013.8 hPa WSW 16.7 km/h 16.7 km/h 90 % 0.0 mm
12:55 18.7 °C 17.1 °C 1013.8 hPa WSW 14.8 km/h 14.8 km/h 90 % 0.0 mm
13:00 18.8 °C 17.0 °C 1013.8 hPa WSW 14.8 km/h 14.8 km/h 89 % 0.0 mm
13:05 18.9 °C 17.1 °C 1013.8 hPa WSW 14.8 km/h 14.8 km/h 89 % 0.0 mm
13:10 19.0 °C 17.2 °C 1013.4 hPa WSW 16.7 km/h 16.7 km/h 89 % 0.0 mm
13:15 19.1 °C 17.0 °C 1013.4 hPa WSW 18.5 km/h 18.5 km/h 88 % 0.0 mm
13:20 19.2 °C 17.2 °C 1013.4 hPa WSW 18.5 km/h 18.5 km/h 88 % 0.0 mm
13:25 19.3 °C 17.2 °C 1013.4 hPa WSW 18.5 km/h 18.5 km/h 88 % 0.0 mm
13:30 19.3 °C 17.1 °C 1013.4 hPa WSW 18.5 km/h 18.5 km/h 87 % 0.0 mm
13:35 19.3 °C 17.1 °C 1013.1 hPa WSW 20.4 km/h 20.4 km/h 87 % 0.0 mm
13:40 19.3 °C 16.9 °C 1013.4 hPa WSW 18.5 km/h 18.5 km/h 86 % 0.0 mm
13:45 19.4 °C 17.0 °C 1013.1 hPa West 16.7 km/h 16.7 km/h 86 % 0.0 mm
13:50 19.5 °C 16.9 °C 1013.1 hPa WSW 18.5 km/h 18.5 km/h 85 % 0.0 mm
13:55 19.7 °C 17.1 °C 1013.1 hPa West 16.7 km/h 16.7 km/h 85 % 0.0 mm
14:00 19.8 °C 17.2 °C 1013.1 hPa WSW 16.7 km/h 16.7 km/h 85 % 0.0 mm
14:05 19.8 °C 17.0 °C 1013.1 hPa West 22.2 km/h 22.2 km/h 84 % 0.0 mm
14:10 19.7 °C 16.9 °C 1013.1 hPa WSW 24.1 km/h 24.1 km/h 84 % 0.0 mm
14:15 19.3 °C 16.4 °C 1013.1 hPa WSW 20.4 km/h 20.4 km/h 83 % 0.0 mm
14:20 19.3 °C 16.4 °C 1013.1 hPa West 14.8 km/h 14.8 km/h 83 % 0.0 mm
14:25 19.4 °C 16.3 °C 1013.1 hPa West 13.0 km/h 13.0 km/h 82 % 0.0 mm
14:30 19.6 °C 16.2 °C 1013.1 hPa West 13.0 km/h 13.0 km/h 81 % 0.0 mm
14:35 19.8 °C 16.1 °C 1013.1 hPa NW 11.1 km/h 11.1 km/h 79 % 0.0 mm
14:40 20.0 °C 15.7 °C 1013.1 hPa NW 14.8 km/h 14.8 km/h 76 % 0.0 mm
14:45 20.6 °C 15.8 °C 1013.1 hPa West 18.5 km/h 18.5 km/h 74 % 0.0 mm
14:47 20.7 °C 15.4 °C 1012.8 hPa WSW 14.8 km/h 14.8 km/h 72 % 0.0 mm
14:52 20.8 °C 14.9 °C 1012.8 hPa West 19.3 km/h 19.3 km/h 69 % 0.0 mm
14:57 21.0 °C 14.9 °C 1012.8 hPa WSW 18.5 km/h 18.5 km/h 68 % 0.0 mm
15:02 21.1 °C 15.6 °C 1012.8 hPa WSW 18.5 km/h 18.5 km/h 71 % 0.0 mm
15:07 21.1 °C 15.6 °C 1012.8 hPa WSW 20.4 km/h 20.4 km/h 71 % 0.0 mm
15:12 21.0 °C 15.3 °C 1012.8 hPa SW 14.8 km/h 14.8 km/h 70 % 0.0 mm
15:17 21.1 °C 15.2 °C 1012.8 hPa West 14.8 km/h 14.8 km/h 69 % 0.0 mm
15:22 21.3 °C 14.7 °C 1012.8 hPa West 19.3 km/h 19.3 km/h 66 % 0.0 mm
15:27 21.7 °C 14.6 °C 1012.8 hPa West 11.3 km/h 11.3 km/h 64 % 0.0 mm
15:32 22.0 °C 14.4 °C 1012.8 hPa West 20.4 km/h 20.4 km/h 62 % 0.0 mm
15:37 22.1 °C 14.2 °C 1012.8 hPa WSW 20.4 km/h 20.4 km/h 61 % 0.0 mm
15:42 22.1 °C 13.7 °C 1012.8 hPa West 20.9 km/h 20.9 km/h 59 % 0.0 mm
15:47 22.1 °C 13.7 °C 1012.8 hPa West 22.2 km/h 22.2 km/h 59 % 0.0 mm
15:52 22.2 °C 13.2 °C 1012.8 hPa West 20.4 km/h 20.4 km/h 57 % 0.0 mm
15:57 22.3 °C 13.1 °C 1012.8 hPa WSW 16.7 km/h 16.7 km/h 56 % 0.0 mm
16:02 22.4 °C 12.9 °C 1013.1 hPa West 22.5 km/h 22.5 km/h 55 % 0.0 mm
16:12 22.5 °C 13.0 °C 1013.1 hPa West 16.7 km/h 16.7 km/h 55 % 0.0 mm
16:17 22.5 °C 13.0 °C 1012.8 hPa West 18.5 km/h 18.5 km/h 55 % 0.0 mm
16:22 22.6 °C 13.3 °C 1013.1 hPa West 20.4 km/h 20.4 km/h 56 % 0.0 mm
16:33 22.4 °C 13.8 °C 1013.1 hPa NW 18.5 km/h 18.5 km/h 58 % 0.0 mm
16:38 22.3 °C 13.7 °C 1013.1 hPa NW 18.5 km/h 18.5 km/h 58 % 0.0 mm
16:43 22.3 °C 13.6 °C 1013.4 hPa NW 16.7 km/h 16.7 km/h 58 % 0.0 mm
16:48 22.2 °C 13.6 °C 1013.4 hPa WNW 16.7 km/h 16.7 km/h 58 % 0.0 mm
16:53 22.2 °C 13.5 °C 1013.4 hPa WNW 14.8 km/h 14.8 km/h 58 % 0.0 mm
16:58 22.1 °C 13.4 °C 1013.4 hPa NW 11.3 km/h 11.3 km/h 58 % 0.0 mm
17:03 22.1 °C 13.4 °C 1013.4 hPa West 14.8 km/h 14.8 km/h 58 % 0.0 mm
17:08 22.0 °C 13.1 °C 1013.4 hPa WNW 18.5 km/h 18.5 km/h 57 % 0.0 mm
17:09 22.0 °C 13.3 °C 1013.4 hPa WNW 16.7 km/h 16.7 km/h 58 % 0.0 mm
17:14 21.9 °C 13.3 °C 1013.4 hPa West 13.0 km/h 13.0 km/h 58 % 0.0 mm
17:19 21.8 °C 13.2 °C 1013.8 hPa West 11.3 km/h 11.3 km/h 58 % 0.0 mm
17:24 21.7 °C 13.1 °C 1013.8 hPa West 16.1 km/h 16.1 km/h 58 % 0.0 mm
17:29 21.7 °C 13.1 °C 1013.4 hPa West 22.5 km/h 22.5 km/h 58 % 0.0 mm
17:34 21.7 °C 13.1 °C 1013.8 hPa West 14.8 km/h 14.8 km/h 58 % 0.0 mm
17:39 21.6 °C 12.7 °C 1013.8 hPa West 25.7 km/h 25.7 km/h 57 % 0.0 mm
17:44 21.5 °C 12.9 °C 1013.8 hPa West 16.7 km/h 16.7 km/h 58 % 0.0 mm
17:49 21.4 °C 13.1 °C 1013.8 hPa WNW 16.7 km/h 16.7 km/h 59 % 0.0 mm
17:54 21.3 °C 13.0 °C 1013.8 hPa West 14.8 km/h 14.8 km/h 59 % 0.0 mm
17:59 21.3 °C 12.7 °C 1013.8 hPa West 29.6 km/h 29.6 km/h 58 % 0.0 mm
18:04 21.2 °C 12.6 °C 1013.8 hPa West 19.3 km/h 19.3 km/h 58 % 0.0 mm
18:09 21.1 °C 12.2 °C 1014.1 hPa WSW 22.2 km/h 22.2 km/h 57 % 0.0 mm
18:14 20.9 °C 12.1 °C 1014.1 hPa West 24.1 km/h 24.1 km/h 57 % 0.0 mm
18:19 20.8 °C 12.2 °C 1014.1 hPa West 20.4 km/h 20.4 km/h 58 % 0.0 mm
18:24 20.7 °C 12.4 °C 1014.4 hPa West 11.1 km/h 11.1 km/h 59 % 0.0 mm
18:29 20.6 °C 12.3 °C 1014.4 hPa WSW 13.0 km/h 13.0 km/h 59 % 0.0 mm
18:34 20.6 °C 12.5 °C 1014.4 hPa West 16.1 km/h 16.1 km/h 60 % 0.0 mm
18:39 20.4 °C 12.4 °C 1014.4 hPa West 14.8 km/h 14.8 km/h 60 % 0.0 mm
18:44 20.4 °C 12.4 °C 1014.8 hPa WNW 17.7 km/h 17.7 km/h 60 % 0.0 mm
18:49 20.3 °C 12.3 °C 1014.8 hPa WSW 16.7 km/h 16.7 km/h 60 % 0.0 mm
18:54 20.3 °C 12.5 °C 1014.8 hPa WNW 13.0 km/h 13.0 km/h 61 % 0.0 mm
18:59 20.3 °C 12.5 °C 1014.8 hPa West 13.0 km/h 13.0 km/h 61 % 0.0 mm
19:04 20.2 °C 12.7 °C 1014.8 hPa West 18.5 km/h 18.5 km/h 62 % 0.0 mm
19:09 20.2 °C 12.7 °C 1015.1 hPa West 14.8 km/h 14.8 km/h 62 % 0.0 mm
19:14 20.1 °C 12.6 °C 1015.1 hPa West 13.0 km/h 13.0 km/h 62 % 0.0 mm
19:19 20.1 °C 12.8 °C 1015.1 hPa West 14.8 km/h 14.8 km/h 63 % 0.0 mm
19:24 20.0 °C 13.0 °C 1015.1 hPa West 11.1 km/h 11.1 km/h 64 % 0.0 mm
19:29 19.9 °C 12.9 °C 1015.1 hPa West 9.3 km/h 9.3 km/h 64 % 0.0 mm
19:34 19.8 °C 13.1 °C 1015.1 hPa West 8.0 km/h 8.0 km/h 65 % 0.0 mm
19:35 19.8 °C 13.1 °C 1015.1 hPa West 11.3 km/h 11.3 km/h 65 % 0.0 mm
19:40 19.8 °C 13.2 °C 1015.5 hPa WSW 5.6 km/h 5.6 km/h 66 % 0.0 mm
19:45 19.7 °C 13.1 °C 1015.5 hPa WSW 7.4 km/h 7.4 km/h 66 % 0.0 mm
19:50 19.6 °C 13.1 °C 1015.5 hPa West 7.4 km/h 7.4 km/h 66 % 0.0 mm
19:55 19.4 °C 13.2 °C 1015.5 hPa West 5.6 km/h 5.6 km/h 67 % 0.0 mm
20:00 19.2 °C 12.9 °C 1015.5 hPa West 5.6 km/h 5.6 km/h 67 % 0.0 mm
20:05 19.1 °C 13.0 °C 1015.5 hPa West 5.6 km/h 5.6 km/h 68 % 0.0 mm
20:10 18.9 °C 12.9 °C 1015.8 hPa West 3.2 km/h 3.2 km/h 68 % 0.0 mm
20:15 18.9 °C 13.1 °C 1015.8 hPa West 3.7 km/h 3.7 km/h 69 % 0.0 mm
20:20 18.9 °C 13.1 °C 1015.8 hPa West 5.6 km/h 5.6 km/h 69 % 0.0 mm
20:25 18.9 °C 13.1 °C 1015.8 hPa West 5.6 km/h 5.6 km/h 69 % 0.0 mm
20:30 18.8 °C 13.2 °C 1015.8 hPa West 5.6 km/h 5.6 km/h 70 % 0.0 mm
20:35 18.7 °C 13.1 °C 1015.8 hPa West 5.6 km/h 5.6 km/h 70 % 0.0 mm
20:40 18.6 °C 13.0 °C 1015.8 hPa West 3.7 km/h 3.7 km/h 70 % 0.0 mm
20:45 18.5 °C 13.2 °C 1015.8 hPa West 5.6 km/h 5.6 km/h 71 % 0.0 mm
20:50 18.5 °C 13.2 °C 1015.8 hPa West 5.6 km/h 5.6 km/h 71 % 0.0 mm
20:55 18.5 °C 13.2 °C 1015.8 hPa WNW 5.6 km/h 5.6 km/h 71 % 0.0 mm
21:00 18.5 °C 13.2 °C 1015.8 hPa West 9.3 km/h 9.3 km/h 71 % 0.0 mm
21:05 18.6 °C 13.2 °C 1015.8 hPa West 8.0 km/h 8.0 km/h 71 % 0.0 mm
21:10 18.7 °C 13.3 °C 1015.8 hPa West 7.4 km/h 7.4 km/h 71 % 0.0 mm
21:15 18.8 °C 13.4 °C 1016.1 hPa West 7.4 km/h 7.4 km/h 71 % 0.0 mm
21:20 18.8 °C 13.4 °C 1016.1 hPa WSW 6.4 km/h 7.1 km/h 71 % 0.0 mm
21:25 18.9 °C 13.7 °C 1016.1 hPa West 9.3 km/h 9.3 km/h 72 % 0.0 mm
21:30 18.9 °C 13.7 °C 1016.1 hPa WSW 13.0 km/h 13.0 km/h 72 % 0.0 mm
21:35 18.7 °C 13.6 °C 1016.1 hPa NE 8.0 km/h 8.0 km/h 72 % 0.0 mm
21:37 18.6 °C 13.4 °C 1016.1 hPa NNE 7.4 km/h 7.4 km/h 72 % 0.0 mm
21:42 17.9 °C 13.1 °C 1016.1 hPa NNE 5.6 km/h 5.6 km/h 73 % 0.0 mm
21:47 17.7 °C 13.0 °C 1016.1 hPa North 6.4 km/h 6.4 km/h 74 % 0.0 mm
21:52 17.4 °C 12.9 °C 1016.5 hPa North 1.6 km/h 1.6 km/h 75 % 0.0 mm
21:57 17.4 °C 12.9 °C 1016.5 hPa North 5.6 km/h 5.6 km/h 75 % 0.0 mm
22:02 17.4 °C 13.1 °C 1016.5 hPa Calm     76 % 0.0 mm
22:07 17.4 °C 13.2 °C 1016.5 hPa North 5.6 km/h 5.6 km/h 76 % 0.0 mm
22:12 17.4 °C 13.2 °C 1016.5 hPa Calm   1.1 km/h 76 % 0.0 mm
22:17 17.4 °C 13.2 °C 1016.5 hPa Calm     76 % 0.0 mm
22:22 17.5 °C 13.2 °C 1016.5 hPa North 1.9 km/h 1.9 km/h 76 % 0.0 mm
22:27 17.6 °C 13.3 °C 1016.5 hPa Calm     76 % 0.0 mm
22:32 17.7 °C 13.4 °C 1016.5 hPa North 3.7 km/h 3.7 km/h 76 % 0.0 mm
22:37 17.8 °C 13.9 °C 1016.5 hPa ESE 7.4 km/h 7.4 km/h 78 % 0.0 mm
22:42 17.9 °C 13.8 °C 1016.5 hPa ESE 3.7 km/h 3.7 km/h 77 % 0.0 mm
22:47 17.9 °C 13.8 °C 1016.8 hPa SE 3.7 km/h 3.7 km/h 77 % 0.0 mm
22:52 18.0 °C 13.9 °C 1016.8 hPa South 5.6 km/h 5.6 km/h 77 % 0.0 mm
23:02 18.1 °C 14.0 °C 1016.8 hPa WNW 5.6 km/h 5.6 km/h 77 % 0.0 mm
23:07 18.0 °C 13.9 °C 1016.8 hPa NNW 5.6 km/h 5.6 km/h 77 % 0.0 mm
23:12 17.8 °C 13.7 °C 1016.8 hPa NNW 3.7 km/h 3.7 km/h 77 % 0.0 mm
23:17 17.8 °C 13.7 °C 1016.8 hPa NNW 3.7 km/h 3.7 km/h 77 % 0.0 mm
23:22 17.7 °C 13.8 °C 1016.8 hPa NW 5.6 km/h 5.6 km/h 78 % 0.0 mm
23:27 17.6 °C 13.7 °C 1017.2 hPa Calm     78 % 0.0 mm
23:32 17.4 °C 13.8 °C 1017.2 hPa North 5.6 km/h 5.6 km/h 79 % 0.0 mm
23:37 17.2 °C 13.7 °C 1017.2 hPa North 3.7 km/h 3.7 km/h 80 % 0.0 mm
23:42 17.2 °C 13.7 °C 1017.2 hPa North 3.7 km/h 3.7 km/h 80 % 0.0 mm
23:47 17.2 °C 13.7 °C 1017.2 hPa North 3.2 km/h 3.2 km/h 80 % 0.0 mm
23:52 17.2 °C 13.9 °C 1017.2 hPa NNW 5.6 km/h 5.6 km/h 81 % 0.0 mm
23:57 17.3 °C 14.1 °C 1017.2 hPa SW 9.3 km/h 9.3 km/h 81 % 0.0 mm
Puerto Banus, Marbella
Elogios de Weather Underground - 1.75 mb

Guión original por  Jim McMurry - jmcmurry@mwt.net Adaptado para la plantilla por  Wim van der Kuil - Leuven-Template.eu

Usted encontrará nuestra información del tiempo también en:

Weather Underground

Iberian Peninsula Weather Network